KIAB/IAB METAR and TAF weather

Enter ICAO airport designator
Station Type Date Time Source
KIAB METAR 2019/04/25 01:56 UTC NOAA

KIAB 250156Z AUTO 15008KT 10SM CLR 15/12 A2982 RMK AO2 SLP097 T01520118 $


Station Type Date Time Source
KIAB Decoded METAR 2019/04/25 01:56 UTC NOAA

McConnell Air Force Base, KS, United States (KIAB) 37-37N 097-16W
Apr 24, 2019 - 09:56 PM EDT / 2019.04.25 0156 UTC
Wind: from the SSE (150 degrees) at 9 MPH (8 KT):0
Visibility: 10 mile(s):0
Sky conditions: clear
Temperature: 59.4 F (15.2 C)
Dew Point: 53.2 F (11.8 C)
Relative Humidity: 80%
Pressure (altimeter): 29.82 in. Hg (1009 hPa)
ob: KIAB 250156Z AUTO 15008KT 10SM CLR 15/12 A2982 RMK AO2 SLP097 T01520118
cycle: 2

Station Type Date Time Source
KIAB TAF 2019/04/24 18:09 UTC NOAA

TAF KIAB 241800Z 2418/2524 VRB06KT 9999 FEW110 BKN190 QNH2979INS
BECMG 2509/2510 VRB06KT 8000 BR BKN030 QNH2978INS
BECMG 2513/2514 35015KT 9999 NSW SKC QNH2981INS
BECMG 2517/2518 35015G25KT 9999 FEW055 QNH2987INS TX22/2517Z TN11/2511Z

Example: see airport list